Latest Weather Observations for Esperance Harbour

IDW60801

Issued at 5:03 am WST Wednesday 24 August 2016 (issued every 30 minutes, with the page automatically refreshed every 10 minutes)

About weather observations | Map of weather stations | Latest weather observations for WA | Other Formats
Station Details ID: 109504 Name: ESPERANCE NTC AWS Lat: -33.87 Lon: 121.90 Height: 0.0 m
Data from the previous 72 hours. | See also: Recent months for locations in Western Australia
Date/Time
WST
Temp
°C
App
Temp
°C
Dew
Point
°C
Rel
Hum
%
Delta-T
°C
Wind Press
QNH
hPa
Press
MSL
hPa
Rain since
9am
mm
Dir  Spd
km/h
Gust
km/h
Spd
kts
Gust
kts
24/05:00am 12.0 - - - - - - - - - 1023.8 1023.7 -
24/04:30am 12.0 - - - - - - - - - 1023.6 1023.5 -
24/04:00am 11.9 - - - - - - - - - 1023.4 1023.3 -
24/03:30am 12.0 - - - - - - - - - 1023.3 1023.2 -
24/03:00am 11.7 - - - - - - - - - 1023.3 1023.2 -
24/02:30am 11.8 - - - - - - - - - 1023.4 1023.3 -
24/02:00am 11.5 - - - - - - - - - 1023.6 1023.5 -
24/01:30am 11.5 - - - - - - - - - 1023.7 1023.6 -
24/01:00am 11.6 - - - - - - - - - 1023.8 1023.7 -
24/12:30am 11.9 - - - - - - - - - 1023.8 1023.7 -
24/12:00am 11.8 - - - - - - - - - 1023.7 1023.6 -
 
Date/Time
WST
Temp
°C
App
Temp
°C
Dew
Point
°C
Rel
Hum
%
Delta-T
°C
Wind Press
QNH
hPa
Press
MSL
hPa
Rain since
9am
mm
Dir  Spd
km/h
Gust
km/h
Spd
kts
Gust
kts
23/11:30pm 11.7 - - - - - - - - - 1023.8 1023.7 -
23/11:00pm 11.8 - - - - - - - - - 1023.9 1023.8 -
23/10:30pm 12.0 - - - - - - - - - 1024.2 1024.1 -
23/10:00pm 12.0 - - - - - - - - - 1024.1 1024.0 -
23/09:30pm 12.1 - - - - - - - - - 1024.2 1024.1 -
23/09:00pm 12.2 - - - - - - - - - 1024.1 1024.0 -
23/08:30pm 12.3 - - - - - - - - - 1023.8 1023.7 -
23/08:00pm 12.3 - - - - - - - - - 1023.5 1023.4 -
23/07:30pm 12.1 - - - - - - - - - 1023.2 1023.1 -
23/07:00pm 12.2 - - - - - - - - - 1022.9 1022.8 -
23/06:30pm 12.2 - - - - - - - - - 1022.6 1022.5 -
23/06:00pm 12.3 - - - - - - - - - 1022.5 1022.4 -
23/05:30pm 11.8 - - - - - - - - - 1022.0 1021.9 -
23/05:00pm 11.3 - - - - - - - - - 1021.8 1021.7 -
23/04:30pm 11.3 - - - - - - - - - 1021.7 1021.6 -
23/04:00pm 11.1 - - - - - - - - - 1021.5 1021.4 -
23/03:30pm 11.2 - - - - - - - - - 1021.2 1021.1 -
23/03:00pm 11.0 - - - - - - - - - 1021.1 1021.0 -
23/02:30pm 11.6 - - - - - - - - - 1021.0 1020.9 -
23/02:00pm 11.8 - - - - - - - - - 1020.9 1020.8 -
23/01:30pm 12.0 - - - - - - - - - 1020.9 1020.8 -
23/01:00pm 11.9 - - - - - - - - - 1020.6 1020.6 -
23/12:30pm 11.7 - - - - - - - - - 1021.0 1020.9 -
23/12:00pm 12.7 - - - - - - - - - 1021.2 1021.1 -
23/11:30am 12.3 - - - - - - - - - 1021.3 1021.2 -
23/11:00am 12.1 - - - - - - - - - 1021.6 1021.5 -
23/10:30am 11.7 - - - - - - - - - 1021.8 1021.7 -
23/10:00am 12.4 - - - - - - - - - 1021.5 1021.4 -
23/09:30am 12.6 - - - - - - - - - 1021.2 1021.1 -
23/09:00am 12.5 - - - - - - - - - 1021.2 1021.1 -
23/08:30am 12.5 - - - - - - - - - 1020.7 1020.7 -
23/08:00am 12.4 - - - - - - - - - 1020.4 1020.4 -
23/07:30am 12.1 - - - - - - - - - 1020.2 1020.2 -
23/07:00am 11.8 - - - - - - - - - 1020.1 1020.1 -
23/06:30am 12.2 - - - - - - - - - 1019.8 1019.8 -
23/06:00am 12.0 - - - - - - - - - 1019.5 1019.5 -
23/05:30am 12.2 - - - - - - - - - 1019.1 1019.1 -
23/05:00am 12.2 - - - - - - - - - 1018.7 1018.7 -
23/04:30am 12.1 - - - - - - - - - 1018.5 1018.5 -
23/04:00am 11.9 - - - - - - - - - 1018.3 1018.3 -
23/03:30am 12.0 - - - - - - - - - 1018.1 1018.1 -
23/03:00am 12.0 - - - - - - - - - 1018.0 1018.0 -
23/02:30am 11.6 - - - - - - - - - 1017.9 1017.9 -
23/02:00am 11.6 - - - - - - - - - 1017.8 1017.8 -
23/01:30am 12.1 - - - - - - - - - 1017.8 1017.8 -
23/01:00am 11.9 - - - - - - - - - 1017.9 1017.9 -
23/12:30am 11.6 - - - - - - - - - 1017.9 1017.9 -
23/12:00am 11.5 - - - - - - - - - 1017.8 1017.8 -
 
Date/Time
WST
Temp
°C
App
Temp
°C
Dew
Point
°C
Rel
Hum
%
Delta-T
°C
Wind Press
QNH
hPa
Press
MSL
hPa
Rain since
9am
mm
Dir  Spd
km/h
Gust
km/h
Spd
kts
Gust
kts
22/11:30pm 11.4 - - - - - - - - - 1017.9 1017.9 -
22/11:00pm 12.0 - - - - - - - - - 1017.8 1017.8 -
22/10:30pm 12.0 - - - - - - - - - 1017.6 1017.6 -
22/10:00pm 11.9 - - - - - - - - - 1017.6 1017.6 -
22/09:30pm 12.3 - - - - - - - - - 1017.5 1017.5 -
22/09:00pm 11.9 - - - - - - - - - 1017.4 1017.4 -
22/08:30pm 11.5 - - - - - - - - - 1017.3 1017.3 -
22/08:00pm 12.3 - - - - - - - - - 1016.9 1016.9 -
22/07:30pm 12.3 - - - - - - - - - 1016.7 1016.7 -
22/07:00pm 11.5 - - - - - - - - - 1016.6 1016.6 -
22/06:30pm 11.7 - - - - - - - - - 1016.1 1016.1 -
22/06:00pm 12.0 - - - - - - - - - 1015.5 1015.5 -
22/05:30pm 12.0 - - - - - - - - - 1015.2 1015.2 -
22/05:00pm 12.2 - - - - - - - - - 1014.6 1014.6 -
22/04:30pm 12.7 - - - - - - - - - 1014.2 1014.2 -
22/04:00pm 12.7 - - - - - - - - - 1013.9 1013.9 -
22/03:30pm 12.5 - - - - - - - - - 1013.3 1013.3 -
22/03:00pm 12.9 - - - - - - - - - 1013.2 1013.2 -
22/02:30pm 13.1 - - - - - - - - - 1012.9 1012.9 -
22/02:00pm 12.9 - - - - - - - - - 1012.7 1012.7 -
22/01:30pm 13.2 - - - - - - - - - 1012.6 1012.6 -
22/01:00pm 13.1 - - - - - - - - - 1012.6 1012.6 -
22/12:30pm 13.0 - - - - - - - - - 1012.4 1012.4 -
22/12:00pm 13.1 - - - - - - - - - 1012.5 1012.5 -
22/11:30am 13.3 - - - - - - - - - 1012.6 1012.6 -
22/11:00am 12.3 - - - - - - - - - 1012.6 1012.6 -
22/10:30am 12.6 - - - - - - - - - 1012.5 1012.5 -
22/10:00am 12.8 - - - - - - - - - 1012.2 1012.2 -
22/09:30am 12.5 - - - - - - - - - 1011.7 1011.7 -
22/09:00am 12.4 - - - - - - - - - 1011.3 1011.3 -
22/08:30am 12.4 - - - - - - - - - 1011.1 1011.1 -
22/08:00am 12.2 - - - - - - - - - 1010.7 1010.7 -
22/07:30am 11.1 - - - - - - - - - 1010.3 1010.3 -
22/07:00am 10.5 - - - - - - - - - 1010.2 1010.2 -
22/06:30am 10.3 - - - - - - - - - 1010.1 1010.1 -
22/06:00am 10.1 - - - - - - - - - 1010.1 1010.1 -
22/05:30am 10.0 - - - - - - - - - 1010.2 1010.2 -
22/05:00am 10.1 - - - - - - - - - 1010.0 1010.0 -
22/04:30am 10.2 - - - - - - - - - 1010.0 1010.0 -
22/04:00am 9.6 - - - - - - - - - 1010.1 1010.1 -
22/03:30am 10.0 - - - - - - - - - 1010.2 1010.2 -
22/03:00am 9.9 - - - - - - - - - 1010.3 1010.3 -
22/02:30am 9.8 - - - - - - - - - 1010.5 1010.5 -
22/02:00am 9.8 - - - - - - - - - 1010.7 1010.7 -
22/01:30am 9.9 - - - - - - - - - 1010.8 1010.8 -
22/01:00am 9.7 - - - - - - - - - 1011.0 1011.0 -
22/12:30am 9.7 - - - - - - - - - 1011.3 1011.3 -
22/12:00am 9.9 - - - - - - - - - 1011.7 1011.7 -
 
Date/Time
WST
Temp
°C
App
Temp
°C
Dew
Point
°C
Rel
Hum
%
Delta-T
°C
Wind Press
QNH
hPa
Press
MSL
hPa
Rain since
9am
mm
Dir  Spd
km/h
Gust
km/h
Spd
kts
Gust
kts
21/11:30pm 10.0 - - - - - - - - - 1012.0 1012.0 -
21/11:00pm 9.9 - - - - - - - - - 1012.4 1012.4 -
21/10:30pm 10.2 - - - - - - - - - 1012.7 1012.7 -
21/10:00pm 10.7 - - - - - - - - - 1012.9 1012.9 -
21/09:30pm 11.7 - - - - - - - - - 1013.2 1013.2 -
21/09:00pm 12.3 - - - - - - - - - 1013.5 1013.5 -
21/08:30pm 11.8 - - - - - - - - - 1013.6 1013.6 -
21/08:00pm 11.4 - - - - - - - - - 1013.6 1013.6 -
21/07:30pm 11.8 - - - - - - - - - 1013.7 1013.7 -
21/07:00pm 12.0 - - - - - - - - - 1014.0 1014.0 -
21/06:30pm 12.7 - - - - - - - - - 1013.9 1013.9 -
21/06:00pm 12.9 - - - - - - - - - 1014.0 1014.0 -
21/05:30pm 13.5 - - - - - - - - - 1013.8 1013.8 -
21/05:00pm 14.3 - - - - - - - - - 1013.7 1013.7 -
21/04:30pm 14.8 - - - - - - - - - 1013.7 1013.7 -
21/04:00pm 14.6 - - - - - - - - - 1013.9 1013.9 -
21/03:30pm 14.4 - - - - - - - - - 1014.1 1014.1 -
21/03:00pm 14.4 - - - - - - - - - 1014.3 1014.3 -
21/02:30pm 14.3 - - - - - - - - - 1014.5 1014.5 -
21/02:00pm 13.6 - - - - - - - - - 1014.8 1014.8 -
21/01:30pm 13.7 - - - - - - - - - 1014.7 1014.7 -
21/01:00pm 14.5 - - - - - - - - - 1014.9 1014.9 -
21/12:30pm 13.5 - - - - - - - - - 1015.3 1015.3 -
21/12:00pm 13.8 - - - - - - - - - 1015.8 1015.8 -
21/11:30am 13.3 - - - - - - - - - 1016.2 1016.2 -
21/11:00am 12.8 - - - - - - - - - 1016.6 1016.6 -
21/10:30am 12.1 - - - - - - - - - 1016.9 1016.9 -
21/10:00am 11.9 - - - - - - - - - 1016.9 1016.9 -
21/09:30am 11.4 - - - - - - - - - 1017.0 1017.0 -
21/09:00am 11.1 - - - - - - - - - 1017.1 1017.1 -
21/08:30am 10.8 - - - - - - - - - 1017.1 1017.1 -
21/08:00am 9.8 - - - - - - - - - 1017.0 1017.0 -
21/07:30am 9.9 - - - - - - - - - 1016.6 1016.6 -
21/07:00am 9.7 - - - - - - - - - 1016.3 1016.3 -
21/06:30am 10.4 - - - - - - - - - 1016.1 1016.1 -
21/06:00am 12.8 - - - - - - - - - 1016.1 1016.1 -
21/05:30am 12.8 - - - - - - - - - 1016.0 1016.0 -

Other Formats:

Comma delimited format used in spreadsheet applications
http://www.bom.gov.au/fwo/IDW60801/IDW60801.95648.axf

JavaScript Object Notation format (JSON) in row-major order
http://www.bom.gov.au/fwo/IDW60801/IDW60801.95648.json